Time;durP1;ratioP1;P1;durP2;ratioP2;P2;SDS_P1;SDS_P2;PMS_P1;PMS_P2;Temp;Humidity;BMP_temperature;BMP_pressure;BME280_temperature;BME280_humidity;BME280_pressure;Samples;Min_cycle;Max_cycle;Signal;HPM_P1;HPM_P2
2021/12/04 00:00:47;;;;;;;;;0.00;0.00;;;;;8.93;84.94;99503.81;5083265;28;45364;-82
2021/12/04 00:03:13;;;;;;;;;0.00;0.00;;;;;8.79;84.49;99457.16;5083210;28;45246;-82
2021/12/04 00:05:41;;;;;;;;;0.00;0.00;;;;;8.93;84.90;99477.84;5082223;28;45628;-82
2021/12/04 00:08:07;;;;;;;;;0.00;0.00;;;;;8.86;85.42;99437.25;5083116;28;45330;-82
2021/12/04 00:10:32;;;;;;;;;0.00;0.00;;;;;9.07;85.18;99462.19;5064594;28;45243;-82
2021/12/04 00:12:57;;;;;;;;;1.00;0.00;;;;;9.10;85.74;99453.56;5063981;28;45457;-82
2021/12/04 00:15:23;;;;;;;;;0.00;0.00;;;;;9.22;85.42;99443.06;5072704;28;45215;-82
2021/12/04 00:17:48;;;;;;;;;0.00;0.00;;;;;9.20;85.47;99436.16;5076514;28;45363;-82
2021/12/04 00:20:14;;;;;;;;;0.00;0.00;;;;;9.42;85.64;99456.78;5062203;28;45914;-82
2021/12/04 00:22:39;;;;;;;;;0.00;0.00;;;;;9.49;85.77;99453.28;5063796;28;45295;-82
2021/12/04 00:25:09;;;;;;;;;0.00;0.00;;;;;9.45;86.05;99425.59;5067615;28;45532;-82
2021/12/04 00:27:35;;;;;;;;;0.00;0.00;;;;;9.63;85.91;99448.84;5072669;28;46915;-82
2021/12/04 00:30:00;;;;;;;;;0.00;0.00;;;;;9.55;85.91;99419.44;5082960;28;45428;-81
2021/12/04 00:35:03;;;;;;;;;0.00;0.00;;;;;9.61;86.13;99410.75;5066522;28;45493;-82
2021/12/04 00:51:24;;;;;;;;;0.00;0.00;;;;;9.86;85.75;99377.59;5082388;28;45399;-83
2021/12/04 00:53:54;;;;;;;;;0.00;0.00;;;;;10.13;85.59;99405.91;5082246;28;45405;-81
2021/12/04 00:56:19;;;;;;;;;0.00;0.00;;;;;10.16;85.30;99389.44;5082862;28;45405;-83
2021/12/04 00:58:44;;;;;;;;;0.00;0.00;;;;;10.05;85.42;99377.41;5080193;28;47287;-82
2021/12/04 01:01:10;;;;;;;;;0.00;0.00;;;;;10.31;85.13;99394.44;5073030;28;45297;-81
2021/12/04 01:03:35;;;;;;;;;0.00;0.00;;;;;10.43;85.56;99408.19;5062992;28;45550;-82
2021/12/04 01:06:01;;;;;;;;;0.00;0.00;;;;;10.50;85.21;99408.13;5063943;28;45541;-82
2021/12/04 01:08:26;;;;;;;;;0.00;0.00;;;;;10.38;84.88;99377.00;5073328;28;45250;-82
2021/12/04 01:10:52;;;;;;;;;0.00;0.00;;;;;10.54;84.54;99390.75;5075246;28;45403;-82
2021/12/04 01:13:17;;;;;;;;;0.00;0.00;;;;;10.58;84.58;99395.03;5063360;28;45372;-82
2021/12/04 01:15:44;;;;;;;;;0.00;0.00;;;;;10.57;84.93;99387.22;5076877;28;45401;-82
2021/12/04 01:18:10;;;;;;;;;0.00;0.00;;;;;10.52;84.74;99379.47;5080598;28;48032;-83
2021/12/04 01:20:36;;;;;;;;;0.00;0.00;;;;;10.72;84.52;99407.00;5081085;28;45473;-81
2021/12/04 01:23:03;;;;;;;;;0.00;0.00;;;;;10.73;84.68;99396.56;5082354;28;45316;-82
2021/12/04 01:25:28;;;;;;;;;0.00;0.00;;;;;10.70;84.29;99390.53;5082146;28;45368;-83
2021/12/04 01:27:54;;;;;;;;;0.00;0.00;;;;;10.89;85.24;99422.38;5082679;28;46109;-83
2021/12/04 01:30:19;;;;;;;;;0.00;0.00;;;;;10.91;84.90;99425.81;5082706;28;45524;-83
2021/12/04 01:32:45;;;;;;;;;0.00;0.00;;;;;10.85;84.97;99413.75;5094390;27;45290;-82
2021/12/04 01:35:10;;;;;;;;;0.00;0.00;;;;;10.79;84.80;99399.94;5102437;27;45551;-82
2021/12/04 01:37:36;;;;;;;;;0.00;0.00;;;;;10.90;84.83;99429.28;5102051;27;45300;-82
2021/12/04 01:40:02;;;;;;;;;0.00;0.00;;;;;10.92;84.83;99431.88;5103051;27;45239;-82
2021/12/04 01:42:29;;;;;;;;;0.00;0.00;;;;;10.71;84.73;99406.13;5103280;27;45362;-82
2021/12/04 01:44:54;;;;;;;;;0.00;0.00;;;;;10.79;85.12;99407.75;5103571;27;45238;-82
2021/12/04 01:47:20;;;;;;;;;0.00;0.00;;;;;10.91;85.07;99428.44;5103686;27;45803;-82
2021/12/04 01:49:48;;;;;;;;;0.00;0.00;;;;;10.60;85.01;99384.59;5093320;27;45283;-83
2021/12/04 01:52:17;;;;;;;;;0.00;0.00;;;;;10.77;85.27;99410.38;5067489;27;45460;-83
2021/12/04 01:54:42;;;;;;;;;0.00;0.00;;;;;10.69;85.10;99394.03;5062770;28;45386;-82
2021/12/04 01:57:08;;;;;;;;;0.00;0.00;;;;;10.76;85.04;99411.28;5065827;28;45217;-83
2021/12/04 01:59:33;;;;;;;;;0.00;0.00;;;;;10.93;85.31;99431.00;5066262;28;45282;-83
2021/12/04 02:01:58;;;;;;;;;0.00;0.00;;;;;10.93;85.54;99437.06;5068569;28;45157;-82
2021/12/04 02:04:24;;;;;;;;;0.00;0.00;;;;;10.61;85.48;99379.38;5064349;28;45378;-84
2021/12/04 02:06:50;;;;;;;;;0.00;0.00;;;;;10.77;85.31;99411.25;5062088;28;45336;-83
2021/12/04 02:09:15;;;;;;;;;0.00;0.00;;;;;10.82;84.91;99411.19;5061965;28;45383;-83
2021/12/04 02:11:41;;;;;;;;;0.00;0.00;;;;;10.78;84.78;99396.47;5062051;28;45322;-83
2021/12/04 02:14:07;;;;;;;;;0.00;0.00;;;;;10.82;84.87;99398.19;5062133;28;45342;-83
2021/12/04 02:16:32;;;;;;;;;0.00;0.00;;;;;10.99;84.98;99439.59;5062543;28;45405;-83
2021/12/04 02:18:58;;;;;;;;;0.00;0.00;;;;;10.79;84.95;99398.22;5061520;28;45354;-83
2021/12/04 02:21:26;;;;;;;;;0.00;0.00;;;;;10.89;85.19;99428.44;5061864;28;45338;-83
2021/12/04 02:23:52;;;;;;;;;0.00;0.00;;;;;10.89;84.62;99418.03;5061883;28;45503;-83
2021/12/04 02:26:18;;;;;;;;;0.00;0.00;;;;;10.87;84.82;99409.38;5061377;28;46214;-83
2021/12/04 02:28:46;;;;;;;;;0.00;0.00;;;;;11.06;84.31;99437.78;5061635;28;45224;-83
2021/12/04 02:31:12;;;;;;;;;0.00;0.00;;;;;10.69;84.13;99387.06;5061450;28;45452;-82
2021/12/04 02:33:38;;;;;;;;;0.00;0.00;;;;;11.07;84.24;99441.22;5101009;27;45294;-83
2021/12/04 02:36:06;;;;;;;;;0.00;0.00;;;;;11.01;84.45;99426.56;5105775;27;46205;-83
2021/12/04 02:38:31;;;;;;;;;0.00;0.00;;;;;11.02;84.34;99436.06;5105571;27;45175;-82
2021/12/04 02:41:00;;;;;;;;;0.00;0.00;;;;;10.93;83.81;99410.19;5104346;27;45304;-83
2021/12/04 02:43:27;;;;;;;;;0.00;0.00;;;;;11.10;84.23;99443.78;5085598;27;45313;-83
2021/12/04 02:45:52;;;;;;;;;0.00;0.00;;;;;10.93;84.00;99412.78;5084890;28;46369;-84
2021/12/04 02:48:18;;;;;;;;;0.00;0.00;;;;;11.09;84.19;99440.31;5084956;28;45287;-83
2021/12/04 02:50:45;;;;;;;;;0.00;0.00;;;;;11.05;84.04;99430.81;5085314;28;45266;-83
2021/12/04 02:53:10;;;;;;;;;0.00;0.00;;;;;10.92;83.85;99406.72;5083984;28;45464;-83
2021/12/04 02:55:36;;;;;;;;;0.00;0.00;;;;;11.11;83.45;99433.34;5084981;28;45228;-83
2021/12/04 02:58:02;;;;;;;;;0.00;0.00;;;;;11.15;83.89;99442.81;5085254;28;45324;-83
2021/12/04 03:00:27;;;;;;;;;0.00;0.00;;;;;10.99;83.47;99413.53;5083787;28;45382;-83
2021/12/04 03:02:55;;;;;;;;;0.00;0.00;;;;;11.20;83.53;99447.97;5085146;28;45410;-83
2021/12/04 03:05:23;;;;;;;;;0.00;0.00;;;;;11.11;83.52;99432.47;5085674;28;46525;-82
2021/12/04 03:07:50;;;;;;;;;0.00;0.00;;;;;11.22;83.71;99454.03;5098361;28;45291;-82
2021/12/04 03:10:15;;;;;;;;;0.00;0.00;;;;;10.90;83.22;99398.91;5100884;28;44731;-82
2021/12/04 03:12:41;;;;;;;;;0.00;0.00;;;;;11.19;83.62;99446.25;5090394;27;45239;-83
2021/12/04 03:15:07;;;;;;;;;0.00;0.00;;;;;10.97;83.61;99404.88;5084922;27;45302;-83
2021/12/04 03:17:33;;;;;;;;;0.00;0.00;;;;;10.47;83.02;99319.69;5084685;27;45491;-83
2021/12/04 03:19:59;;;;;;;;;0.00;0.00;;;;;11.06;83.22;99410.88;5083659;28;45294;-83
2021/12/04 03:22:24;;;;;;;;;0.00;0.00;;;;;11.10;83.10;99422.94;5085442;27;45244;-83
2021/12/04 03:24:51;;;;;;;;;0.00;0.00;;;;;11.01;82.83;99403.13;5083577;28;48181;-83
2021/12/04 03:27:18;;;;;;;;;0.00;0.00;;;;;10.99;82.95;99400.53;5084993;27;45397;-83
2021/12/04 03:30:03;;;;;;;;;0.00;0.00;;;;;11.05;83.24;99419.56;5084801;27;45331;-83
2021/12/04 03:35:22;;;;;;;;;0.00;0.00;;;;;11.21;82.90;99444.47;5105206;27;46173;-83
2021/12/04 03:40:50;;;;;;;;;0.00;0.00;;;;;11.11;83.16;99424.66;5034174;28;45370;-83
2021/12/04 03:43:15;;;;;;;;;0.00;0.00;;;;;11.16;82.98;99433.28;5064710;28;45223;-83
2021/12/04 03:45:44;;;;;;;;;0.00;0.00;;;;;11.23;83.00;99444.47;5063344;28;45955;-83
2021/12/04 03:48:14;;;;;;;;;0.00;0.00;;;;;11.01;82.88;99409.19;5064485;28;45420;-82
2021/12/04 03:50:39;;;;;;;;;0.00;0.00;;;;;11.10;82.78;99416.00;5099636;28;44861;-82
2021/12/04 03:53:05;;;;;;;;;0.00;0.00;;;;;11.15;82.43;99432.41;5102022;28;44793;-83
2021/12/04 03:55:31;;;;;;;;;0.00;0.00;;;;;10.92;82.56;99390.22;5083855;27;46153;-83
2021/12/04 03:57:56;;;;;;;;;0.00;0.00;;;;;11.11;82.51;99424.66;5084921;28;45340;-83
2021/12/04 04:00:27;;;;;;;;;0.00;0.00;;;;;10.99;82.83;99403.13;5086270;28;45251;-83
2021/12/04 04:02:53;;;;;;;;;0.00;0.00;;;;;11.09;82.41;99418.63;5083219;28;45205;-83
2021/12/04 04:05:18;;;;;;;;;0.00;0.00;;;;;11.21;82.49;99443.63;5083039;28;47386;-83
2021/12/04 04:07:44;;;;;;;;;0.00;0.00;;;;;10.95;82.57;99400.59;5085104;28;45128;-82
2021/12/04 04:10:09;;;;;;;;;0.00;0.00;;;;;10.97;82.40;99411.84;5082862;28;45225;-82
2021/12/04 04:12:35;;;;;;;;;0.00;0.00;;;;;11.05;82.17;99406.53;5082859;28;45802;-83
2021/12/04 04:15:00;;;;;;;;;0.00;0.00;;;;;11.20;82.20;99434.94;5083898;28;45509;-83
2021/12/04 04:17:30;;;;;;;;;0.00;0.00;;;;;11.24;82.20;99446.19;5083391;28;46530;-83
2021/12/04 04:19:56;;;;;;;;;0.00;0.00;;;;;11.25;81.86;99455.72;5083530;28;45254;-83
2021/12/04 04:22:21;;;;;;;;;0.00;0.00;;;;;11.03;81.92;99410.00;5071691;28;45263;-83
2021/12/04 04:24:46;;;;;;;;;0.00;0.00;;;;;11.25;81.97;99442.69;5063360;28;45325;-82
2021/12/04 04:27:12;;;;;;;;;0.00;0.00;;;;;11.06;81.85;99413.47;5064736;28;45169;-83
2021/12/04 04:29:37;;;;;;;;;0.00;0.00;;;;;11.12;81.83;99419.44;5066023;28;45925;-82
2021/12/04 04:32:03;;;;;;;;;0.00;0.00;;;;;11.15;81.49;99424.59;5075188;27;45533;-83
2021/12/04 04:34:37;;;;;;;;;0.00;0.00;;;;;11.22;81.52;99440.16;5104110;27;46325;-83
2021/12/04 04:40:10;;;;;;;;;0.50;0.25;;;;;11.14;81.49;99441.13;5104059;27;45269;-83
2021/12/04 05:12:30;;;;;;;;;0.00;0.00;;;;;10.85;80.86;99390.34;5062846;28;45519;-83
2021/12/04 05:14:59;;;;;;;;;0.00;0.00;;;;;10.95;81.19;99398.84;5062944;28;45346;-83
2021/12/04 05:19:54;;;;;;;;;0.00;0.00;;;;;11.03;81.05;99415.22;5062583;28;45281;-83
2021/12/04 05:22:22;;;;;;;;;0.00;0.00;;;;;10.99;81.33;99390.13;5074009;28;45299;-83
2021/12/04 05:24:48;;;;;;;;;0.00;0.00;;;;;11.11;81.42;99409.91;5082996;28;45356;-83
2021/12/04 05:27:14;;;;;;;;;0.00;0.00;;;;;11.12;81.46;99413.38;5082843;28;46217;-83
2021/12/04 05:29:40;;;;;;;;;0.00;0.00;;;;;11.06;81.50;99408.25;5083120;28;45398;-83
2021/12/04 05:32:06;;;;;;;;;0.00;0.00;;;;;11.06;81.32;99411.72;5087371;27;45336;-83
2021/12/04 05:34:33;;;;;;;;;0.00;0.00;;;;;11.05;81.23;99416.97;5102330;27;45535;-82
2021/12/04 05:36:59;;;;;;;;;0.00;0.00;;;;;10.96;80.93;99395.38;5103173;27;45655;-83
2021/12/04 05:39:25;;;;;;;;;0.00;0.00;;;;;10.95;80.94;99393.66;5102892;27;45282;-83
2021/12/04 05:41:51;;;;;;;;;0.00;0.00;;;;;10.78;80.82;99367.84;5103320;27;45290;-84
2021/12/04 05:44:19;;;;;;;;;0.00;0.00;;;;;10.89;81.04;99391.13;5103547;27;45306;-83
2021/12/04 05:46:58;;;;;;;;;0.00;0.00;;;;;10.98;80.78;99396.22;5102876;27;45361;-84
2021/12/04 05:49:28;;;;;;;;;0.00;0.00;;;;;11.06;80.84;99416.94;5101592;27;45297;-83
2021/12/04 05:57:05;;;;;;;;;0.00;0.00;;;;;10.92;80.69;99406.72;5064199;28;45283;-83
2021/12/04 05:59:30;;;;;;;;;0.00;0.00;;;;;11.10;80.55;99438.56;5062951;28;45338;-83
2021/12/04 06:01:56;;;;;;;;;0.00;0.00;;;;;11.10;80.58;99422.94;5067091;28;45356;-83
2021/12/04 06:04:24;;;;;;;;;0.00;0.00;;;;;11.03;80.56;99420.44;5066105;28;45262;-83
2021/12/04 06:06:49;;;;;;;;;0.00;0.00;;;;;11.00;80.64;99404.00;5064751;28;48519;-84
2021/12/04 06:09:14;;;;;;;;;0.00;0.00;;;;;10.97;81.00;99391.88;5076315;28;45195;-83
2021/12/04 06:11:40;;;;;;;;;0.00;0.00;;;;;10.86;80.72;99391.16;5082781;28;45385;-83
2021/12/04 06:14:06;;;;;;;;;0.00;0.00;;;;;11.10;80.45;99426.44;5084788;28;45521;-83
2021/12/04 06:16:32;;;;;;;;;0.00;0.00;;;;;11.08;80.15;99425.56;5068719;28;45468;-83
2021/12/04 06:19:05;;;;;;;;;0.00;0.00;;;;;10.86;80.30;99386.84;5065251;28;45315;-83
2021/12/04 06:24:15;;;;;;;;;0.00;0.00;;;;;11.00;80.07;99398.78;5065605;28;45228;-83
2021/12/04 06:26:40;;;;;;;;;0.00;0.00;;;;;10.78;79.93;99367.84;5065297;28;45315;-83
2021/12/04 06:29:05;;;;;;;;;0.00;0.00;;;;;10.91;80.15;99389.38;5063988;28;45890;-83
2021/12/04 06:31:32;;;;;;;;;0.00;0.00;;;;;10.85;80.09;99371.22;5075742;27;45356;-83
2021/12/04 06:33:57;;;;;;;;;0.00;0.00;;;;;10.91;79.94;99381.56;5075941;27;45379;-83
2021/12/04 06:36:25;;;;;;;;;0.00;0.00;;;;;11.01;79.97;99392.69;5073311;28;45438;-83
2021/12/04 06:38:51;;;;;;;;;0.00;0.00;;;;;10.80;80.03;99368.69;5072435;28;45323;-84
2021/12/04 06:41:17;;;;;;;;;0.00;0.00;;;;;10.97;80.05;99399.69;5072028;28;45292;-83
2021/12/04 06:43:47;;;;;;;;;0.00;0.00;;;;;10.97;80.24;99391.88;5077451;28;45231;-83
2021/12/04 06:46:15;;;;;;;;;0.00;0.00;;;;;10.72;79.86;99349.72;5082796;28;45893;-82
2021/12/04 06:48:49;;;;;;;;;0.00;0.00;;;;;10.97;79.97;99393.63;5084440;28;45286;-83
2021/12/04 06:51:23;;;;;;;;;0.00;0.00;;;;;10.94;79.88;99402.34;5075595;28;45432;-83
2021/12/04 06:53:59;;;;;;;;;0.00;0.00;;;;;10.95;80.08;99395.38;5075837;28;45408;-85
2021/12/04 06:56:32;;;;;;;;;0.50;0.00;;;;;10.67;79.97;99354.13;5069793;28;45325;-84
2021/12/04 06:59:00;;;;;;;;;0.00;0.00;;;;;10.83;80.06;99373.84;5065063;28;45318;-84
2021/12/04 07:01:25;;;;;;;;;0.00;0.00;;;;;10.89;79.97;99380.72;5065062;28;45418;-84
2021/12/04 07:03:51;;;;;;;;;0.00;0.00;;;;;10.94;79.86;99378.91;5063983;28;45290;-84
2021/12/04 07:06:17;;;;;;;;;0.00;0.00;;;;;10.96;80.29;99373.69;5064451;28;47165;-87
2021/12/04 07:08:42;;;;;;;;;0.00;0.00;;;;;11.00;80.02;99381.41;5068155;28;45440;-82
2021/12/04 07:11:08;;;;;;;;;0.50;0.00;;;;;10.96;80.11;99387.56;5067639;28;45204;-82
2021/12/04 07:13:34;;;;;;;;;0.00;0.00;;;;;10.72;80.41;99350.56;5075852;28;45603;-80
2021/12/04 07:16:03;;;;;;;;;0.00;0.00;;;;;10.72;80.66;99349.72;5083010;28;46570;-81
2021/12/04 07:18:28;;;;;;;;;0.00;0.00;;;;;10.81;80.74;99361.75;5065326;28;45503;-82
2021/12/04 07:20:54;;;;;;;;;0.00;0.00;;;;;10.89;80.73;99381.59;5078061;28;45524;-81
2021/12/04 07:23:19;;;;;;;;;1.00;0.00;;;;;10.95;80.78;99384.97;5072856;28;45346;-81
2021/12/04 07:25:44;;;;;;;;;0.00;0.00;;;;;10.67;81.13;99343.72;5071130;27;45978;-81
2021/12/04 07:28:10;;;;;;;;;0.00;0.00;;;;;10.75;81.49;99347.09;5079612;28;45409;-81
2021/12/04 07:30:35;;;;;;;;;0.00;0.00;;;;;10.70;81.51;99346.28;5084610;28;45555;-81
2021/12/04 07:33:00;;;;;;;;;0.00;0.00;;;;;10.83;81.72;99378.19;5098303;27;45598;-80
2021/12/04 07:35:26;;;;;;;;;0.00;0.00;;;;;10.75;81.66;99349.69;5105050;27;46513;-81
2021/12/04 07:37:51;;;;;;;;;0.00;0.00;;;;;10.79;82.19;99373.91;5102023;27;45223;-82
2021/12/04 07:40:17;;;;;;;;;0.00;0.00;;;;;10.58;82.10;99349.91;5065294;28;45481;-80
2021/12/04 07:42:42;;;;;;;;;0.00;0.00;;;;;10.73;82.41;99386.16;5063033;28;45249;-80
2021/12/04 07:45:08;;;;;;;;;0.00;0.00;;;;;10.67;82.55;99364.53;5063929;28;45523;-77
2021/12/04 07:47:34;;;;;;;;;0.00;0.00;;;;;10.69;83.06;99376.63;5062397;28;45550;-84
2021/12/04 07:50:01;;;;;;;;;0.00;0.00;;;;;10.56;83.30;99351.69;5081664;28;45279;-78
2021/12/04 07:52:26;;;;;;;;;0.00;0.00;;;;;10.56;83.50;99369.91;5075158;28;46573;-77
2021/12/04 07:54:52;;;;;;;;;0.00;0.00;;;;;10.61;83.33;99381.97;5083469;28;46213;-79
2021/12/04 07:57:17;;;;;;;;;0.00;0.00;;;;;10.63;83.93;99393.19;5083416;28;45274;-80
2021/12/04 07:59:43;;;;;;;;;0.00;0.00;;;;;10.48;83.86;99354.38;5065966;28;45414;-79
2021/12/04 08:02:08;;;;;;;;;0.00;0.00;;;;;10.63;83.60;99376.75;5065321;28;45492;-79
2021/12/04 08:04:34;;;;;;;;;0.00;0.00;;;;;10.45;83.63;99342.28;5061780;28;48026;-82
2021/12/04 08:06:59;;;;;;;;;0.00;0.00;;;;;10.64;84.22;99387.13;5063793;28;45245;-80
2021/12/04 08:09:24;;;;;;;;;0.00;0.00;;;;;10.60;83.83;99372.41;5074995;28;45345;-78
2021/12/04 08:11:50;;;;;;;;;0.00;0.00;;;;;10.72;83.93;99388.78;5069858;28;45472;-79
2021/12/04 08:14:17;;;;;;;;;0.00;0.00;;;;;10.74;83.91;99385.25;5063222;28;46093;-78
2021/12/04 08:16:43;;;;;;;;;0.00;0.00;;;;;10.65;84.08;99374.97;5072267;28;45236;-81
2021/12/04 08:19:08;;;;;;;;;0.00;0.00;;;;;10.75;84.33;99391.34;5063318;28;45233;-80
2021/12/04 08:21:35;;;;;;;;;0.00;0.00;;;;;10.78;84.15;99388.66;5069769;28;45195;-81
2021/12/04 08:24:01;;;;;;;;;0.00;0.00;;;;;10.77;83.88;99381.75;5076679;28;45491;-79
2021/12/04 08:26:27;;;;;;;;;0.00;0.00;;;;;10.53;82.95;99349.97;5076393;27;45614;-81
2021/12/04 08:28:52;;;;;;;;;0.00;0.00;;;;;10.75;82.67;99394.78;5074061;28;45389;-83
2021/12/04 08:31:18;;;;;;;;;0.00;0.00;;;;;10.85;82.48;99403.34;5067937;28;45401;-83
2021/12/04 08:33:43;;;;;;;;;0.00;0.00;;;;;10.65;82.28;99367.16;5069493;27;46172;-82
2021/12/04 08:36:12;;;;;;;;;0.00;0.00;;;;;10.89;82.15;99399.81;5069271;28;45428;-80
2021/12/04 08:38:37;;;;;;;;;0.00;0.00;;;;;10.81;81.31;99398.19;5081587;27;45285;-80
2021/12/04 08:41:04;;;;;;;;;0.00;0.00;;;;;10.90;81.16;99413.66;5082852;28;45504;-80
2021/12/04 08:43:30;;;;;;;;;0.00;0.00;;;;;10.91;80.64;99418.00;5086664;27;45935;-81
2021/12/04 08:45:59;;;;;;;;;0.00;0.00;;;;;10.97;80.67;99409.25;5086073;28;45549;-82
2021/12/04 08:48:25;;;;;;;;;0.00;0.00;;;;;10.96;80.27;99415.34;5064455;28;46647;-80
2021/12/04 08:50:50;;;;;;;;;0.00;0.00;;;;;10.92;80.35;99416.25;5067276;28;45672;-80
2021/12/04 08:53:16;;;;;;;;;0.00;0.00;;;;;10.71;80.14;99398.31;5065551;28;45929;-82
2021/12/04 08:55:43;;;;;;;;;0.00;0.00;;;;;10.92;78.88;99424.94;5073877;27;45495;-83
2021/12/04 08:58:10;;;;;;;;;0.75;0.00;;;;;10.91;78.30;99420.63;5062732;28;45240;-79
2021/12/04 09:00:51;;;;;;;;;0.00;0.00;;;;;10.89;78.50;99432.78;5078547;28;45592;-79
2021/12/04 09:03:21;;;;;;;;;0.00;0.00;;;;;10.76;78.27;99404.31;5065034;28;46046;-83
2021/12/04 09:05:46;;;;;;;;;0.00;0.00;;;;;10.93;77.97;99442.28;5062098;28;45433;-81
2021/12/04 09:08:13;;;;;;;;;0.00;0.00;;;;;10.83;77.19;99422.44;5064781;28;45299;-81
2021/12/04 09:10:41;;;;;;;;;0.00;0.00;;;;;10.85;76.60;99434.59;5062710;28;45619;-81
2021/12/04 09:13:07;;;;;;;;;0.00;0.00;;;;;10.72;76.11;99431.25;5079934;28;47537;-80
2021/12/04 09:15:33;;;;;;;;;0.00;0.00;;;;;10.78;76.65;99435.53;5081671;28;45227;-80
2021/12/04 09:17:59;;;;;;;;;0.00;0.00;;;;;10.82;75.75;99444.16;5078059;28;45292;-78
2021/12/04 09:20:28;;;;;;;;;0.75;0.00;;;;;10.86;75.36;99451.03;5078654;28;45534;-79
2021/12/04 09:22:54;;;;;;;;;0.00;0.00;;;;;10.94;75.25;99471.78;5068071;28;47284;-78
2021/12/04 09:25:25;;;;;;;;;0.00;0.00;;;;;10.89;74.73;99461.44;5061540;28;45411;-77
2021/12/04 09:28:17;;;;;;;;;0.25;0.00;;;;;10.80;73.95;99466.75;5066389;28;45326;-77
2021/12/04 09:31:24;;;;;;;;;0.00;0.00;;;;;10.82;73.53;99462.38;5075705;28;45282;-79
2021/12/04 09:33:58;;;;;;;;;0.00;0.00;;;;;10.86;74.24;99485.75;5089444;27;45985;-81
2021/12/04 10:01:00;;;;;;;;;0.00;0.00;;;;;10.57;71.04;99505.16;5077615;28;45351;-80
2021/12/04 10:15:35;;;;;;;;;0.00;0.00;;;;;10.44;70.75;99563.41;5067625;28;46145;-79
2021/12/04 10:34:53;;;;;;;;;0.00;0.00;;;;;10.33;69.82;99594.72;5080957;28;45472;-82
2021/12/04 10:37:24;;;;;;;;;0.00;0.00;;;;;10.29;70.46;99588.66;5071606;28;45354;-81
2021/12/04 10:39:59;;;;;;;;;0.00;0.00;;;;;10.31;70.80;99586.94;5063635;28;45488;-80
2021/12/04 10:42:31;;;;;;;;;0.00;0.00;;;;;10.31;70.21;99586.94;5071254;28;45342;-80
2021/12/04 10:44:57;;;;;;;;;0.00;0.00;;;;;10.37;70.01;99586.00;5079672;27;45439;-81
2021/12/04 10:47:27;;;;;;;;;0.00;0.00;;;;;10.25;69.12;99579.19;5065318;27;45448;-79
2021/12/04 10:59:22;;;;;;;;;0.00;0.00;;;;;10.21;69.71;99606.97;5086232;28;45287;-80
2021/12/04 11:04:15;;;;;;;;;0.00;0.00;;;;;10.07;68.80;99591.47;5064503;28;45244;-79
2021/12/04 11:39:56;;;;;;;;;0.00;0.00;;;;;9.63;71.51;99674.91;5074964;28;45781;-83
2021/12/04 11:45:13;;;;;;;;;0.00;0.00;;;;;9.27;70.90;99692.34;5073796;28;46216;-82
2021/12/04 11:47:42;;;;;;;;;0.00;0.00;;;;;8.84;69.48;99698.50;5070701;28;45330;-81
2021/12/04 11:50:31;;;;;;;;;0.00;0.00;;;;;8.45;70.12;99690.66;5075289;28;45493;-79
2021/12/04 11:53:02;;;;;;;;;0.00;0.00;;;;;8.29;69.83;99701.03;5070030;28;45394;-81
2021/12/04 11:55:33;;;;;;;;;0.00;0.00;;;;;8.13;70.63;99696.69;5069102;28;47106;-79
2021/12/04 11:57:58;;;;;;;;;0.00;0.00;;;;;8.04;71.40;99701.00;5065296;28;45282;-79
2021/12/04 12:00:37;;;;;;;;;0.00;0.00;;;;;7.95;71.89;99691.47;5062754;28;45280;-79
2021/12/04 12:03:12;;;;;;;;;0.00;0.00;;;;;8.09;72.34;99703.63;5064101;28;45508;-79
2021/12/04 12:05:52;;;;;;;;;0.00;0.00;;;;;8.01;73.38;99681.97;5061884;28;47152;-79
2021/12/04 12:08:30;;;;;;;;;0.00;0.00;;;;;8.18;73.48;99706.19;5062731;28;45328;-80
2021/12/04 12:11:08;;;;;;;;;0.00;0.00;;;;;8.26;73.08;99714.00;5073390;28;45564;-80
2021/12/04 12:13:35;;;;;;;;;0.00;0.00;;;;;8.33;73.91;99705.38;5068737;28;45452;-78
2021/12/04 12:16:06;;;;;;;;;0.00;0.00;;;;;8.45;73.08;99712.28;5071814;28;46066;-80
2021/12/04 12:18:43;;;;;;;;;0.00;0.00;;;;;8.60;73.20;99718.38;5070115;28;45316;-78
2021/12/04 12:21:10;;;;;;;;;0.00;0.00;;;;;8.45;72.72;99675.09;5073525;28;45556;-80
2021/12/04 12:24:11;;;;;;;;;0.00;0.00;;;;;8.65;72.01;99689.84;5072801;28;45478;-80
2021/12/04 12:26:43;;;;;;;;;0.00;0.00;;;;;8.70;71.52;99701.94;5074245;28;45785;-82
2021/12/04 12:38:15;;;;;;;;;0.00;0.00;;;;;9.13;69.81;99765.94;5071736;28;45871;-80
2021/12/04 12:40:43;;;;;;;;;0.00;0.00;;;;;9.12;69.05;99750.38;5096818;28;44729;-80
2021/12/04 12:43:16;;;;;;;;;0.00;0.00;;;;;9.20;67.73;99773.75;5101222;28;45203;-80
2021/12/04 12:45:56;;;;;;;;;0.00;0.00;;;;;9.24;67.93;99772.88;5102871;28;44686;-79
2021/12/04 12:48:23;;;;;;;;;0.00;0.00;;;;;9.32;67.36;99780.66;5095390;28;47247;-79
2021/12/04 12:50:49;;;;;;;;;0.00;0.00;;;;;9.32;66.44;99765.06;5085416;28;44860;-79
2021/12/04 12:53:26;;;;;;;;;0.00;0.00;;;;;9.39;66.71;99787.56;5084801;28;44834;-82
2021/12/04 12:56:08;;;;;;;;;0.00;0.00;;;;;9.45;66.82;99799.66;5103070;28;44824;-80
2021/12/04 12:58:55;;;;;;;;;1.00;0.00;;;;;9.45;66.53;99804.88;5102307;28;45327;-79
2021/12/04 13:12:51;;;;;;;;;1.25;0.00;;;;;9.37;65.49;99807.47;5085975;28;44768;-79
2021/12/04 13:15:37;;;;;;;;;0.00;0.00;;;;;9.31;66.35;99810.94;5100951;28;44730;-80
2021/12/04 13:18:20;;;;;;;;;0.00;0.00;;;;;9.22;65.76;99788.44;5100270;28;44885;-79
2021/12/04 13:20:47;;;;;;;;;0.00;0.00;;;;;9.38;66.30;99810.06;5084529;28;47135;-80
2021/12/04 13:23:18;;;;;;;;;0.00;0.00;;;;;9.31;65.22;99815.28;5085384;28;45405;-80
2021/12/04 13:25:57;;;;;;;;;0.00;0.00;;;;;9.34;65.19;99815.28;5085034;28;45355;-80
2021/12/04 13:28:27;;;;;;;;;0.00;0.00;;;;;9.31;65.03;99823.94;5084919;28;45169;-80
2021/12/04 13:30:54;;;;;;;;;0.00;0.00;;;;;9.24;64.37;99810.09;5081968;28;45266;-80
2021/12/04 13:33:20;;;;;;;;;0.00;0.00;;;;;9.34;64.36;99813.53;5101249;27;45051;-79
2021/12/04 13:35:46;;;;;;;;;0.00;0.00;;;;;9.52;63.98;99827.38;5106778;27;45288;-78
2021/12/04 13:38:14;;;;;;;;;0.00;0.00;;;;;9.52;61.66;99829.97;5104790;27;45324;-84
2021/12/04 13:40:43;;;;;;;;;0.00;0.00;;;;;9.36;62.04;99803.16;5098730;27;45419;-79
2021/12/04 13:43:13;;;;;;;;;0.00;0.00;;;;;9.48;60.16;99828.25;5082243;28;45390;-80
2021/12/04 13:45:41;;;;;;;;;0.00;0.00;;;;;9.43;60.59;99833.44;5077928;28;45263;-80
2021/12/04 13:48:07;;;;;;;;;0.00;0.00;;;;;9.40;61.04;99828.25;5063833;28;45498;-82
2021/12/04 13:53:06;;;;;;;;;0.00;0.00;;;;;9.28;60.70;99807.50;5063001;28;45291;-80
2021/12/04 13:55:38;;;;;;;;;0.00;0.00;;;;;9.20;59.91;99791.91;5062949;28;45349;-79
2021/12/04 13:58:05;;;;;;;;;0.00;0.00;;;;;9.27;60.07;99819.63;5063525;28;45174;-80
2021/12/04 14:00:31;;;;;;;;;0.00;0.00;;;;;9.17;60.08;99815.28;5066896;28;47434;-80
2021/12/04 14:02:56;;;;;;;;;0.00;0.00;;;;;9.21;59.53;99819.59;5079269;27;45305;-80
2021/12/04 14:05:24;;;;;;;;;0.00;0.00;;;;;9.30;60.13;99808.34;5076694;28;45864;-81
2021/12/04 14:08:05;;;;;;;;;0.00;0.00;;;;;9.20;58.87;99787.59;5075932;28;45319;-83
2021/12/04 14:10:34;;;;;;;;;0.00;0.00;;;;;9.32;58.85;99817.88;5067018;28;45467;-82
2021/12/04 14:13:02;;;;;;;;;0.00;0.00;;;;;9.31;58.85;99812.69;5068012;28;45299;-82
2021/12/04 14:15:28;;;;;;;;;0.00;0.00;;;;;9.21;58.89;99807.50;5078520;28;45212;-81
2021/12/04 14:18:02;;;;;;;;;0.00;0.00;;;;;9.30;58.85;99823.94;5091895;28;45277;-78
2021/12/04 14:20:30;;;;;;;;;0.00;0.00;;;;;9.13;58.51;99793.66;5087270;28;47484;-79
2021/12/04 14:22:56;;;;;;;;;0.00;0.00;;;;;9.32;58.41;99817.88;5078837;27;45283;-82
2021/12/04 14:25:23;;;;;;;;;0.00;0.00;;;;;8.80;58.30;99746.06;5065220;28;45346;-83
2021/12/04 14:27:51;;;;;;;;;0.00;0.00;;;;;9.26;57.56;99833.47;5045129;28;45320;-81
2021/12/04 14:30:19;;;;;;;;;0.50;0.00;;;;;9.25;58.11;99845.59;5067108;28;45290;-80
2021/12/04 14:32:52;;;;;;;;;0.00;0.00;;;;;9.18;57.37;99837.78;5074161;27;45505;-79
2021/12/04 14:35:19;;;;;;;;;0.00;0.00;;;;;9.22;58.04;99842.13;5068121;28;45537;-79
2021/12/04 14:37:48;;;;;;;;;1.00;0.00;;;;;9.26;58.69;99849.06;5079304;27;45370;-80
2021/12/04 14:40:28;;;;;;;;;0.00;0.00;;;;;9.40;57.24;99871.56;5075025;27;45559;-82
2021/12/04 14:42:54;;;;;;;;;0.00;0.00;;;;;9.33;57.09;99868.09;5077939;27;45450;-79
2021/12/04 14:45:22;;;;;;;;;0.00;0.00;;;;;9.22;56.95;99858.56;5068541;27;45420;-80
2021/12/04 14:47:51;;;;;;;;;0.00;0.00;;;;;9.03;56.07;99847.31;5078952;27;45521;-81
2021/12/04 14:50:19;;;;;;;;;0.00;0.00;;;;;9.12;55.68;99875.88;5070662;27;45458;-82